Time;durP1;ratioP1;P1;durP2;ratioP2;P2;SDS_P1;SDS_P2;PMS_P1;PMS_P2;Temp;Humidity;BMP_temperature;BMP_pressure;BME280_temperature;BME280_humidity;BME280_pressure;Samples;Min_cycle;Max_cycle;Signal;HPM_P1;HPM_P2
2021/05/06 00:02:31;;;;;;;1999.90;999.90;;;7.00;99.90;;;;;;4955910;29;20055;-93
2021/05/06 00:08:03;;;;;;;1999.90;999.90;;;7.00;99.90;;;;;;4953149;29;20062;-93
2021/05/06 00:30:18;;;;;;;1999.90;999.90;;;6.80;99.90;;;;;;4954562;28;20055;-93
2021/05/06 00:32:54;;;;;;;1999.90;999.90;;;6.80;99.90;;;;;;4975690;28;20046;-94
2021/05/06 00:35:21;;;;;;;1999.90;999.90;;;6.80;99.90;;;;;;4977886;28;20079;-92
2021/05/06 00:37:57;;;;;;;1999.90;999.90;;;6.80;99.90;;;;;;4977923;28;20032;-93
2021/05/06 00:40:31;;;;;;;1999.90;999.90;;;6.80;99.90;;;;;;4965354;28;20058;-92
2021/05/06 00:43:31;;;;;;;1999.90;999.90;;;6.90;99.90;;;;;;4970167;28;20138;-93
2021/05/06 00:54:25;;;;;;;1999.90;999.90;;;6.70;99.90;;;;;;4963119;29;20039;-93
2021/05/06 00:56:58;;;;;;;1999.90;999.90;;;6.60;99.90;;;;;;4980205;28;20139;-94
2021/05/06 00:59:43;;;;;;;1999.90;999.90;;;6.70;99.90;;;;;;4973380;28;20066;-93
2021/05/06 01:02:33;;;;;;;1999.90;999.90;;;6.70;99.90;;;;;;4979109;28;20079;-93
2021/05/06 01:05:04;;;;;;;1999.90;999.90;;;6.80;99.90;;;;;;4980730;28;20093;-93
2021/05/06 01:07:50;;;;;;;1999.90;999.90;;;6.70;99.90;;;;;;4969790;28;20070;-93
2021/05/06 01:10:30;;;;;;;1999.90;999.90;;;6.70;99.90;;;;;;4957804;29;20510;-94
2021/05/06 01:12:57;;;;;;;1999.90;999.90;;;6.60;99.90;;;;;;4958121;29;20055;-94
2021/05/06 01:15:26;;;;;;;1999.90;999.90;;;6.60;99.90;;;;;;4958588;29;20062;-94
2021/05/06 01:17:53;;;;;;;1999.90;999.90;;;6.60;99.90;;;;;;4956177;29;20050;-94
2021/05/06 01:20:21;;;;;;;1999.90;999.90;;;6.70;99.90;;;;;;4954026;29;20118;-93
2021/05/06 01:22:49;;;;;;;1999.90;999.90;;;6.60;99.90;;;;;;4953319;29;20115;-94
2021/05/06 01:25:17;;;;;;;1999.90;999.90;;;6.70;99.90;;;;;;4946354;29;20055;-93
2021/05/06 01:27:53;;;;;;;1999.90;999.90;;;6.60;99.90;;;;;;4956351;29;20081;-94
2021/05/06 01:30:28;;;;;;;1999.90;999.90;;;6.60;99.90;;;;;;4958693;29;20087;-93
2021/05/06 01:33:04;;;;;;;1999.90;999.90;;;6.60;99.90;;;;;;4958859;29;20051;-95
2021/05/06 01:35:35;;;;;;;1999.90;999.90;;;6.50;99.90;;;;;;4950303;29;20047;-93
2021/05/06 01:38:17;;;;;;;1999.90;999.90;;;6.50;99.90;;;;;;4957129;29;20055;-93
2021/05/06 01:41:04;;;;;;;1999.90;999.90;;;6.40;99.90;;;;;;4956676;29;20059;-94
2021/05/06 01:43:40;;;;;;;1999.90;999.90;;;6.30;99.90;;;;;;4956097;29;20058;-94
2021/05/06 01:46:35;;;;;;;1999.90;999.90;;;6.40;99.90;;;;;;4957426;29;20110;-94
2021/05/06 01:49:27;;;;;;;1999.90;999.90;;;6.40;99.90;;;;;;4946471;29;20051;-93
2021/05/06 01:57:40;;;;;;;1999.90;999.90;;;6.30;99.90;;;;;;4953394;29;20103;-93
2021/05/06 02:00:12;;;;;;;1999.90;999.90;;;6.30;99.90;;;;;;4946842;29;20059;-93
2021/05/06 02:02:44;;;;;;;1999.90;999.90;;;6.30;99.90;;;;;;4958107;29;20051;-94
2021/05/06 02:05:14;;;;;;;1999.90;999.90;;;6.30;99.90;;;;;;4958026;29;20063;-95
2021/05/06 02:07:44;;;;;;;1999.90;999.90;;;6.30;99.90;;;;;;4957915;29;20051;-95
2021/05/06 02:10:16;;;;;;;1999.90;999.90;;;6.30;99.90;;;;;;4958066;29;20062;-95
2021/05/06 02:12:46;;;;;;;1999.90;999.90;;;6.20;99.90;;;;;;4957539;29;20075;-93
2021/05/06 02:15:16;;;;;;;1999.90;999.90;;;6.20;99.90;;;;;;4957469;29;20051;-94
2021/05/06 02:17:46;;;;;;;1999.90;999.90;;;6.10;99.90;;;;;;4956910;29;20614;-94
2021/05/06 02:20:15;;;;;;;1999.90;999.90;;;6.10;99.90;;;;;;4949586;29;20510;-93
2021/05/06 02:22:42;;;;;;;1999.90;999.90;;;6.10;99.90;;;;;;4956975;29;20055;-95
2021/05/06 02:25:10;;;;;;;1999.90;999.90;;;6.10;99.90;;;;;;4957020;29;20138;-93
2021/05/06 02:27:39;;;;;;;1999.90;999.90;;;6.10;99.90;;;;;;4957075;29;20169;-93
2021/05/06 02:40:54;;;;;;;1999.90;999.90;;;6.00;99.90;;;;;;5432134;23;20058;-96
2021/05/06 02:44:01;;;;;;;1999.90;999.90;;;5.90;99.90;;;;;;4951156;29;20055;-95
2021/05/06 02:46:50;;;;;;;1999.90;999.90;;;5.90;99.90;;;;;;4955475;29;20060;-96
2021/05/06 02:49:58;;;;;;;1999.90;999.90;;;5.80;99.90;;;;;;4948257;29;20063;-96
2021/05/06 02:52:53;;;;;;;1999.90;999.90;;;5.70;99.90;;;;;;4959145;28;20043;-95
2021/05/06 02:55:53;;;;;;;1999.90;999.90;;;5.70;99.90;;;;;;4959951;28;20066;-96
2021/05/06 04:54:27;;;;;;;1999.90;999.90;;;5.60;99.90;;;;;;4937921;29;20064;-93
2021/05/06 04:57:10;;;;;;;1999.90;999.90;;;5.60;99.90;;;;;;4940530;29;20530;-93
2021/05/06 05:05:09;;;;;;;1999.90;999.90;;;5.70;99.90;;;;;;4944772;29;19929;-93
2021/05/06 05:07:39;;;;;;;1999.90;999.90;;;5.70;99.90;;;;;;4945042;29;20071;-94
2021/05/06 05:10:20;;;;;;;1999.90;999.90;;;5.60;99.90;;;;;;4944803;29;20056;-95
2021/05/06 05:18:42;;;;;;;1999.90;999.90;;;5.70;99.90;;;;;;4944518;29;20055;-94
2021/05/06 05:21:22;;;;;;;1999.90;999.90;;;5.60;99.90;;;;;;4961559;28;20061;-94
2021/05/06 05:23:57;;;;;;;1999.90;999.90;;;5.60;99.90;;;;;;4953062;28;20035;-93
2021/05/06 05:26:28;;;;;;;1999.90;999.90;;;5.70;99.90;;;;;;4962597;28;20047;-94
2021/05/06 05:28:59;;;;;;;1999.90;999.90;;;5.70;99.90;;;;;;4959661;28;20031;-93
2021/05/06 05:31:26;;;;;;;1999.90;999.90;;;5.70;99.90;;;;;;4939398;29;20055;-93
2021/05/06 05:34:01;;;;;;;1999.90;999.90;;;5.80;99.90;;;;;;4939441;29;20083;-93
2021/05/06 05:36:28;;;;;;;;;;;5.90;99.90;;;;;;4939040;29;20514;-93
2021/05/06 05:39:01;;;;;;;1999.90;999.90;;;5.90;99.90;;;;;;4939480;29;20289;-93
2021/05/06 05:41:57;;;;;;;1999.90;999.90;;;6.00;99.90;;;;;;4939097;29;20044;-93
2021/05/06 05:55:50;;;;;;;1999.90;999.90;;;6.30;99.90;;;;;;4951680;29;20055;-93
2021/05/06 05:58:19;;;;;;;1999.90;999.90;;;6.30;99.90;;;;;;4945074;29;20455;-93
2021/05/06 06:00:51;;;;;;;1999.90;999.90;;;6.30;99.90;;;;;;4938707;29;20051;-93
2021/05/06 06:03:19;;;;;;;1999.90;999.90;;;6.40;99.90;;;;;;4938853;29;20581;-94
2021/05/06 06:05:53;;;;;;;1999.90;999.90;;;6.50;99.90;;;;;;4933893;29;20401;-93
2021/05/06 06:08:29;;;;;;;1999.90;999.90;;;6.50;99.90;;;;;;4931621;29;20139;-93
2021/05/06 06:11:00;;;;;;;1999.90;999.90;;;6.50;99.90;;;;;;4938907;29;20058;-93
2021/05/06 06:13:30;;;;;;;1999.90;999.90;;;6.50;99.90;;;;;;4938807;29;20138;-93
2021/05/06 06:16:02;;;;;;;1999.90;999.90;;;6.50;99.90;;;;;;4938698;29;20059;-93
2021/05/06 06:18:36;;;;;;;1999.90;999.90;;;6.50;99.90;;;;;;4938636;29;20059;-93
2021/05/06 06:21:07;;;;;;;1999.90;999.90;;;6.60;99.90;;;;;;4938099;29;20491;-94
2021/05/06 06:23:38;;;;;;;1999.90;999.90;;;6.70;99.90;;;;;;4938565;29;20398;-94
2021/05/06 06:26:09;;;;;;;1999.90;999.90;;;6.70;99.90;;;;;;4938692;29;20055;-93
2021/05/06 06:28:45;;;;;;;1999.90;999.90;;;6.80;99.90;;;;;;4938536;29;20051;-93
2021/05/06 06:31:17;;;;;;;1999.90;999.90;;;6.90;99.90;;;;;;4938245;29;20051;-94
2021/05/06 06:33:47;;;;;;;1999.90;999.90;;;6.90;99.90;;;;;;4939156;29;20063;-93
2021/05/06 06:36:18;;;;;;;1999.90;999.90;;;6.90;99.90;;;;;;4937953;29;20444;-93
2021/05/06 06:38:45;;;;;;;1999.90;999.90;;;7.00;99.90;;;;;;4937972;29;20051;-93
2021/05/06 06:41:13;;;;;;;1999.90;999.90;;;7.00;99.90;;;;;;4937877;29;20051;-93
2021/05/06 06:43:45;;;;;;;1999.90;999.90;;;7.10;99.90;;;;;;4937745;29;20067;-92
2021/05/06 06:46:18;;;;;;;1999.90;999.90;;;7.20;99.90;;;;;;4941829;29;20066;-93
2021/05/06 06:48:46;;;;;;;1999.90;999.90;;;7.30;99.90;;;;;;4937697;29;20156;-93
2021/05/06 06:51:19;;;;;;;1999.90;999.90;;;7.30;99.90;;;;;;4937938;29;20488;-93
2021/05/06 06:53:56;;;;;;;1999.90;999.90;;;7.40;99.90;;;;;;4937694;29;20491;-94
2021/05/06 06:56:24;;;;;;;1999.90;999.90;;;7.50;99.90;;;;;;4937827;29;20051;-93
2021/05/06 06:58:54;;;;;;;1999.90;999.90;;;7.70;99.90;;;;;;4941844;29;20058;-94
2021/05/06 07:01:26;;;;;;;1999.90;999.90;;;7.70;99.90;;;;;;4937249;29;20574;-93
2021/05/06 07:03:57;;;;;;;1999.90;999.90;;;7.70;99.90;;;;;;4937947;29;20060;-93
2021/05/06 07:06:25;;;;;;;1999.90;999.90;;;7.70;99.90;;;;;;4937538;29;20066;-93
2021/05/06 07:08:52;;;;;;;1999.90;999.90;;;7.80;99.90;;;;;;4937649;29;20052;-93
2021/05/06 07:11:46;;;;;;;1999.90;999.90;;;7.90;99.90;;;;;;4937941;29;20054;-93
2021/05/06 07:14:38;;;;;;;1999.90;999.90;;;8.00;99.90;;;;;;4948497;29;20502;-93
2021/05/06 07:17:13;;;;;;;1999.90;999.90;;;7.90;99.90;;;;;;4918500;29;20071;-93
2021/05/06 07:19:41;;;;;;;1999.90;999.90;;;7.90;99.90;;;;;;4931032;29;20110;-93
2021/05/06 07:22:08;;;;;;;1999.90;999.90;;;7.90;99.90;;;;;;4935916;29;20078;-93
2021/05/06 07:24:37;;;;;;;1999.90;999.90;;;7.90;99.90;;;;;;4918454;29;20542;-93
2021/05/06 07:27:08;;;;;;;1999.90;999.90;;;8.00;99.90;;;;;;4932896;29;20075;-93
2021/05/06 07:29:37;;;;;;;1999.90;999.90;;;8.00;99.90;;;;;;4936770;29;20044;-93
2021/05/06 07:32:26;;;;;;;1999.90;999.90;;;8.00;99.90;;;;;;4929566;29;20052;-93
2021/05/06 07:35:02;;;;;;;1999.90;999.90;;;8.00;99.90;;;;;;4937485;29;20056;-93
2021/05/06 07:37:33;;;;;;;1999.90;999.90;;;8.10;99.90;;;;;;4937679;29;20212;-94
2021/05/06 07:40:05;;;;;;;1999.90;999.90;;;8.20;99.90;;;;;;4937685;29;20139;-93
2021/05/06 07:42:35;;;;;;;1999.90;999.90;;;8.30;99.90;;;;;;4936885;29;20468;-94
2021/05/06 07:45:33;;;;;;;1999.90;999.90;;;8.40;99.90;;;;;;4937930;29;20059;-94
2021/05/06 07:48:16;;;;;;;1999.90;999.90;;;8.50;99.90;;;;;;4943460;29;20066;-93
2021/05/06 07:51:07;;;;;;;1999.90;999.90;;;8.70;99.90;;;;;;4939542;29;20048;-94
2021/05/06 07:53:57;;;;;;;1999.90;999.90;;;8.70;99.90;;;;;;4920423;29;20503;-94
2021/05/06 07:56:29;;;;;;;1999.90;999.90;;;8.90;99.90;;;;;;4945745;29;20467;-94
2021/05/06 07:58:56;;;;;;;1999.90;999.90;;;8.90;99.90;;;;;;4936096;29;20476;-94
2021/05/06 08:01:25;;;;;;;1999.90;999.90;;;8.90;99.90;;;;;;4932480;29;20089;-93
2021/05/06 08:03:53;;;;;;;1999.90;999.90;;;9.00;99.90;;;;;;4940771;29;20541;-93
2021/05/06 08:09:31;;;;;;;1999.90;999.90;;;9.00;99.90;;;;;;4947099;29;20051;-93
2021/05/06 08:12:01;;;;;;;1999.90;999.90;;;9.20;99.90;;;;;;4929797;29;20048;-92
2021/05/06 08:14:29;;;;;;;1999.90;999.90;;;9.20;99.90;;;;;;4947555;29;20138;-93
2021/05/06 08:17:03;;;;;;;1999.90;999.90;;;9.20;99.90;;;;;;4942981;29;20083;-93
2021/05/06 08:19:36;;;;;;;1999.90;999.90;;;9.30;99.90;;;;;;4943857;29;20048;-93
2021/05/06 08:22:04;;;;;;;1999.90;999.90;;;9.40;99.90;;;;;;4935946;29;20051;-92
2021/05/06 08:24:36;;;;;;;1999.90;999.90;;;9.70;99.90;;;;;;4932587;29;20055;-92
2021/05/06 08:27:20;;;;;;;;;;;;;;;;;;;;;
2021/05/06 08:30:09;;;;;;;1999.90;999.90;;;9.80;99.90;;;;;;4928813;29;20067;-93
2021/05/06 08:32:46;;;;;;;1999.90;999.90;;;10.00;99.90;;;;;;4938291;29;20059;-93
2021/05/06 08:38:37;;;;;;;1999.90;999.90;;;10.20;99.90;;;;;;4937097;29;20158;-93
2021/05/06 08:41:08;;;;;;;1999.90;999.90;;;10.30;99.90;;;;;;4939096;29;20062;-93
2021/05/06 08:43:40;;;;;;;1999.90;999.90;;;10.50;99.90;;;;;;4933491;29;20052;-94
2021/05/06 08:46:07;;;;;;;1999.90;999.90;;;10.60;99.90;;;;;;4940997;29;20067;-92
2021/05/06 08:49:30;;;;;;;1999.90;999.90;;;10.60;99.90;;;;;;4961035;29;20078;-96
2021/05/06 08:52:44;;;;;;;1999.90;999.90;;;10.60;99.90;;;;;;4940710;28;20052;-96
2021/05/06 08:55:34;;;;;;;1999.90;999.90;;;10.80;99.90;;;;;;4944125;29;20127;-96
2021/05/06 08:58:21;;;;;;;1999.90;999.90;;;10.90;99.90;;;;;;4940783;29;20044;-96
2021/05/06 09:00:49;;;;;;;1999.90;999.90;;;11.00;99.90;;;;;;4940218;29;20052;-92
2021/05/06 09:03:30;;;;;;;1999.90;999.90;;;11.20;99.90;;;;;;4942012;29;20048;-96
2021/05/06 09:06:17;;;;;;;1999.90;999.90;;;11.10;99.20;;;;;;4940436;29;20083;-92
2021/05/06 09:08:53;;;;;;;1999.90;999.90;;;11.20;98.70;;;;;;4926750;29;20051;-92
2021/05/06 09:11:30;;;;;;;1999.90;999.90;;;11.30;99.60;;;;;;4951844;29;20110;-92
2021/05/06 09:14:05;;;;;;;1999.90;999.90;;;11.30;98.50;;;;;;4948116;29;20119;-93
2021/05/06 09:16:42;;;;;;;1999.90;999.90;;;11.30;99.10;;;;;;4959426;29;20044;-92
2021/05/06 09:19:11;;;;;;;1999.90;999.90;;;11.40;99.40;;;;;;4936321;29;20055;-92
2021/05/06 09:21:42;;;;;;;1999.90;999.90;;;11.50;99.10;;;;;;4932779;29;20503;-92
2021/05/06 09:24:19;;;;;;;1999.90;999.90;;;11.60;98.20;;;;;;4947085;29;20055;-93
2021/05/06 09:26:48;;;;;;;1999.90;999.90;;;11.70;98.40;;;;;;4932404;29;20059;-94
2021/05/06 09:29:30;;;;;;;1999.90;999.90;;;11.80;97.70;;;;;;4937240;29;20059;-93
2021/05/06 09:32:14;;;;;;;1999.90;999.90;;;11.90;96.10;;;;;;4935219;29;20066;-92
2021/05/06 09:34:48;;;;;;;1999.90;999.90;;;11.80;96.60;;;;;;4933891;29;20418;-93
2021/05/06 09:37:22;;;;;;;1999.90;999.90;;;11.80;96.70;;;;;;4931102;29;20055;-94
2021/05/06 09:39:59;;;;;;;1999.90;999.90;;;12.00;96.70;;;;;;4938246;29;20066;-93
2021/05/06 09:42:39;;;;;;;1999.90;999.90;;;12.00;96.10;;;;;;4936315;29;20044;-93
2021/05/06 09:45:20;;;;;;;1999.90;999.90;;;12.00;94.30;;;;;;4934545;29;20055;-93
2021/05/06 09:48:08;;;;;;;1999.90;999.90;;;11.80;93.20;;;;;;4937309;29;20418;-93
2021/05/06 09:50:38;;;;;;;1999.90;999.90;;;11.70;94.10;;;;;;4933773;29;20062;-93
2021/05/06 09:53:12;;;;;;;1999.90;999.90;;;11.60;93.60;;;;;;4936952;28;20056;-93
2021/05/06 09:55:40;;;;;;;1999.90;999.90;;;11.60;93.80;;;;;;4937635;29;20127;-92
2021/05/06 09:58:13;;;;;;;1999.90;999.90;;;11.70;93.20;;;;;;4930324;29;20591;-93
2021/05/06 10:00:41;;;;;;;1999.90;999.90;;;11.60;92.50;;;;;;4936936;29;20455;-92
2021/05/06 10:03:16;;;;;;;1999.90;999.90;;;11.60;92.90;;;;;;4937869;29;20491;-93
2021/05/06 10:05:45;;;;;;;1999.90;999.90;;;11.80;93.20;;;;;;4937689;29;20059;-93
2021/05/06 10:08:14;;;;;;;1999.90;999.90;;;11.90;93.80;;;;;;4935111;29;20060;-93
2021/05/06 10:10:42;;;;;;;1999.90;999.90;;;12.10;92.90;;;;;;4937973;29;20077;-93
2021/05/06 10:13:10;;;;;;;1999.90;999.90;;;12.20;92.60;;;;;;4927022;29;20048;-93
2021/05/06 10:15:39;;;;;;;1999.90;999.90;;;12.40;92.40;;;;;;4937837;29;20043;-93
2021/05/06 10:18:22;;;;;;;1999.90;999.90;;;12.40;91.80;;;;;;4933427;29;20103;-93
2021/05/06 10:20:51;;;;;;;1999.90;999.90;;;12.40;87.80;;;;;;4936694;29;20059;-94
2021/05/06 10:23:19;;;;;;;1999.90;999.90;;;12.40;86.90;;;;;;4937926;29;20403;-93
2021/05/06 10:25:46;;;;;;;1999.90;999.90;;;12.10;87.50;;;;;;4938043;29;20067;-93
2021/05/06 10:28:15;;;;;;;1999.90;999.90;;;12.10;88.30;;;;;;4937379;29;20055;-93
2021/05/06 10:30:43;;;;;;;1999.90;999.90;;;12.10;88.70;;;;;;4924398;29;20076;-92
2021/05/06 10:33:11;;;;;;;1999.90;999.90;;;12.20;90.10;;;;;;4930163;29;20447;-93
2021/05/06 10:35:45;;;;;;;;;;;12.30;87.60;;;;;;4937920;29;20051;-92
2021/05/06 10:39:02;;;;;;;1999.90;999.90;;;12.20;84.60;;;;;;4926633;29;19942;-93
2021/05/06 10:45:04;;;;;;;1999.90;999.90;;;12.20;85.40;;;;;;4933905;29;20143;-93
2021/05/06 10:47:54;;;;;;;1999.90;999.90;;;12.30;89.20;;;;;;4923484;29;20060;-96
2021/05/06 10:50:26;;;;;;;1999.90;999.90;;;12.50;84.90;;;;;;4922433;29;20060;-96
2021/05/06 10:53:01;;;;;;;1999.90;999.90;;;12.30;85.10;;;;;;4922647;29;20052;-96
2021/05/06 10:56:01;;;;;;;1999.90;999.90;;;12.20;82.80;;;;;;4920357;29;20052;-96
2021/05/06 10:59:15;;;;;;;1999.90;999.90;;;12.10;82.30;;;;;;4882808;29;20090;-96
2021/05/06 11:01:48;;;;;;;1999.90;999.90;;;12.10;83.30;;;;;;4881679;29;20121;-96
2021/05/06 11:04:32;;;;;;;1999.90;999.90;;;12.10;83.60;;;;;;4884644;29;20063;-96
2021/05/06 11:15:27;;;;;;;1999.90;999.90;;;12.40;87.20;;;;;;4920420;29;20101;-96
2021/05/06 11:18:04;;;;;;;1999.90;999.90;;;12.20;91.60;;;;;;4919930;29;20051;-96
2021/05/06 11:20:51;;;;;;;1999.90;999.90;;;11.80;92.80;;;;;;4920342;29;20123;-96
2021/05/06 11:23:36;;;;;;;;;;;11.50;93.40;;;;;;4919766;29;20048;-96
2021/05/06 11:26:09;;;;;;;1999.90;999.90;;;11.20;93.70;;;;;;4920447;29;19923;-96
2021/05/06 11:28:48;;;;;;;1999.90;999.90;;;10.90;94.40;;;;;;4919920;29;20084;-96
2021/05/06 11:31:23;;;;;;;1999.90;999.90;;;10.70;96.20;;;;;;4920973;29;20139;-96
2021/05/06 11:33:52;;;;;;;1999.90;999.90;;;10.70;95.90;;;;;;4921252;29;20136;-96
2021/05/06 11:36:20;;;;;;;1999.90;999.90;;;10.90;96.60;;;;;;4919997;29;20456;-96
2021/05/06 11:39:07;;;;;;;1999.90;999.90;;;10.80;96.30;;;;;;4920389;29;20095;-96
2021/05/06 11:41:35;;;;;;;1999.90;999.90;;;10.60;97.10;;;;;;4920544;29;20056;-96
2021/05/06 11:44:07;;;;;;;1999.90;999.90;;;10.70;97.50;;;;;;4921075;29;20048;-96
2021/05/06 11:46:39;;;;;;;1999.90;999.90;;;10.60;97.60;;;;;;4921228;29;20380;-96
2021/05/06 11:49:13;;;;;;;1999.90;999.90;;;10.50;97.60;;;;;;4922084;29;20059;-95
2021/05/06 11:51:42;;;;;;;1999.90;999.90;;;10.40;97.50;;;;;;4921542;29;20107;-96
2021/05/06 11:54:11;;;;;;;1999.90;999.90;;;10.40;98.00;;;;;;4922778;29;20083;-96
2021/05/06 11:56:40;;;;;;;1999.90;999.90;;;10.30;98.20;;;;;;4922057;29;20084;-96
2021/05/06 11:59:09;;;;;;;1999.90;999.90;;;10.20;98.70;;;;;;4921722;29;20052;-96
2021/05/06 12:01:36;;;;;;;1999.90;999.90;;;10.10;98.80;;;;;;4921601;29;20052;-96
2021/05/06 12:04:05;;;;;;;1999.90;999.90;;;10.10;99.50;;;;;;4921744;29;20459;-96
2021/05/06 12:06:35;;;;;;;1999.90;999.90;;;10.10;99.60;;;;;;4921372;29;20052;-96
2021/05/06 12:09:05;;;;;;;1999.90;999.90;;;10.10;99.50;;;;;;4921188;29;20108;-96
2021/05/06 12:11:38;;;;;;;1999.90;999.90;;;10.10;99.90;;;;;;4921701;29;20062;-96
2021/05/06 12:14:07;;;;;;;1999.90;999.90;;;10.10;99.90;;;;;;4921372;29;20100;-96
2021/05/06 12:16:41;;;;;;;1999.90;999.90;;;10.10;99.90;;;;;;4920779;29;20058;-96
2021/05/06 12:19:11;;;;;;;1999.90;999.90;;;10.00;99.90;;;;;;4921091;29;20076;-96
2021/05/06 12:21:46;;;;;;;1999.90;999.90;;;10.00;99.90;;;;;;4920106;29;20626;-95
2021/05/06 12:24:36;;;;;;;1999.90;999.90;;;9.90;99.90;;;;;;4919453;29;20052;-96
2021/05/06 12:27:16;;;;;;;1999.90;999.90;;;9.90;99.90;;;;;;4923695;29;20139;-96
2021/05/06 12:30:10;;;;;;;1999.90;999.90;;;9.90;99.70;;;;;;4925600;29;20076;-96
2021/05/06 12:32:43;;;;;;;1999.90;999.90;;;10.00;99.90;;;;;;4931029;29;20134;-93
2021/05/06 12:35:18;;;;;;;1999.90;999.90;;;10.10;99.90;;;;;;4938068;29;20052;-92
2021/05/06 12:38:11;;;;;;;1999.90;999.90;;;10.30;99.90;;;;;;4920543;29;20058;-92
2021/05/06 12:40:43;;;;;;;1999.90;999.90;;;10.50;99.40;;;;;;4939244;29;20122;-91
2021/05/06 12:43:32;;;;;;;1999.90;999.90;;;10.60;99.20;;;;;;4935284;29;20059;-92
2021/05/06 12:46:10;;;;;;;1999.90;999.90;;;10.70;98.40;;;;;;4946321;29;20430;-96
2021/05/06 12:48:55;;;;;;;1999.90;999.90;;;10.70;97.80;;;;;;4953502;29;20051;-96
2021/05/06 12:51:36;;;;;;;1999.90;999.90;;;10.80;98.60;;;;;;4955802;29;20063;-96
2021/05/06 12:54:15;;;;;;;1999.90;999.90;;;10.90;98.90;;;;;;4941160;29;20060;-92
2021/05/06 12:56:43;;;;;;;1999.90;999.90;;;11.00;98.30;;;;;;4939204;29;20060;-92
2021/05/06 12:59:25;;;;;;;1999.90;999.90;;;11.00;97.70;;;;;;4941596;29;20055;-96
2021/05/06 13:01:54;;;;;;;1999.90;999.90;;;11.10;97.70;;;;;;4943735;29;20087;-95
2021/05/06 13:04:25;;;;;;;1999.90;999.90;;;11.20;98.60;;;;;;4943151;29;20055;-96
2021/05/06 13:07:02;;;;;;;1999.90;999.90;;;11.30;98.00;;;;;;4944102;29;20056;-96
2021/05/06 13:09:53;;;;;;;1999.90;999.90;;;11.30;97.40;;;;;;4943886;29;20123;-96
2021/05/06 13:12:45;;;;;;;1999.90;999.90;;;11.40;97.50;;;;;;4944126;29;20111;-96
2021/05/06 13:15:23;;;;;;;1999.90;999.90;;;11.30;96.50;;;;;;4949935;29;20075;-96
2021/05/06 14:14:12;;;;;;;1999.90;999.90;;;11.80;95.60;;;;;;5657544;23;19945;-96
2021/05/06 14:16:41;;;;;;;1999.90;999.90;;;11.80;96.00;;;;;;4949321;29;20139;-96
2021/05/06 14:19:12;;;;;;;1999.90;999.90;;;11.80;95.40;;;;;;4948012;29;20085;-96
2021/05/06 14:21:41;;;;;;;1999.90;999.90;;;11.60;94.90;;;;;;4947011;29;20154;-96
2021/05/06 14:24:11;;;;;;;1999.90;999.90;;;11.80;98.00;;;;;;4947907;29;20080;-96
2021/05/06 14:26:39;;;;;;;1999.90;999.90;;;12.00;96.70;;;;;;4949395;29;20055;-96
2021/05/06 14:29:09;;;;;;;1999.90;999.90;;;12.20;96.60;;;;;;4950049;29;20055;-96
2021/05/06 14:31:38;;;;;;;1999.90;999.90;;;12.50;97.30;;;;;;4948905;29;20368;-96
2021/05/06 14:34:08;;;;;;;1999.90;999.90;;;12.60;95.00;;;;;;4946584;29;20048;-96
2021/05/06 14:36:36;;;;;;;1999.90;999.90;;;12.80;94.20;;;;;;4947244;29;20059;-96
2021/05/06 14:39:06;;;;;;;1999.90;999.90;;;13.00;95.50;;;;;;4948599;29;20538;-96
2021/05/06 14:45:05;;;;;;;1999.90;999.90;;;13.50;94.90;;;;;;4945504;23;20051;-96
2021/05/06 14:50:39;;;;;;;1999.90;999.90;;;13.90;93.60;;;;;;4976580;23;20066;-96
2021/05/06 14:59:59;;;;;;;1999.90;999.90;;;14.00;90.70;;;;;;4917244;29;20056;-95
2021/05/06 15:02:26;;;;;;;1999.90;999.90;;;14.10;91.30;;;;;;4905169;29;20498;-94
2021/05/06 15:04:54;;;;;;;1999.90;999.90;;;14.30;92.30;;;;;;4918869;29;20100;-95
2021/05/06 15:07:22;;;;;;;1999.90;999.90;;;14.40;86.70;;;;;;4922495;29;20048;-96
2021/05/06 15:09:51;;;;;;;1999.90;999.90;;;14.50;82.20;;;;;;4922567;29;20052;-95
2021/05/06 15:12:18;;;;;;;1999.90;999.90;;;14.60;88.90;;;;;;4921722;29;20063;-95
2021/05/06 15:14:45;;;;;;;1999.90;999.90;;;14.70;86.30;;;;;;4922567;29;20107;-94
2021/05/06 15:17:12;;;;;;;1999.90;999.90;;;14.60;84.40;;;;;;4941574;29;20043;-96
2021/05/06 15:19:39;;;;;;;1999.90;999.90;;;14.60;87.90;;;;;;4956333;29;20051;-95
2021/05/06 15:22:06;;;;;;;1999.90;999.90;;;14.60;87.30;;;;;;4927985;29;20052;-95
2021/05/06 15:24:46;;;;;;;1999.90;999.90;;;14.80;85.30;;;;;;4950081;29;20035;-95
2021/05/06 15:27:14;;;;;;;1999.90;999.90;;;14.80;79.50;;;;;;4951745;29;20040;-95
2021/05/06 15:29:42;;;;;;;1999.90;999.90;;;14.90;81.00;;;;;;4949449;29;20032;-95
2021/05/06 15:32:11;;;;;;;1999.90;999.90;;;15.00;79.70;;;;;;4957795;29;20076;-95
2021/05/06 15:34:38;;;;;;;1999.90;999.90;;;15.10;83.50;;;;;;4933496;29;20063;-95
2021/05/06 15:37:06;;;;;;;1999.90;999.90;;;15.40;83.50;;;;;;4922314;29;20063;-96
2021/05/06 15:39:34;;;;;;;1999.90;999.90;;;15.60;83.60;;;;;;4922271;29;20051;-95
2021/05/06 15:42:03;;;;;;;1999.90;999.90;;;15.60;81.30;;;;;;4922986;29;20064;-96
2021/05/06 15:44:32;;;;;;;1999.90;999.90;;;15.80;84.60;;;;;;4945379;29;20052;-95
2021/05/06 15:47:10;;;;;;;1999.90;999.90;;;16.20;82.30;;;;;;4945754;29;20080;-96
2021/05/06 15:49:42;;;;;;;1999.90;999.90;;;16.40;79.40;;;;;;4937171;29;20092;-96
2021/05/06 15:52:11;;;;;;;1999.90;999.90;;;16.10;68.70;;;;;;4940690;29;20056;-95
2021/05/06 15:54:39;;;;;;;1999.90;999.90;;;15.80;72.90;;;;;;4940565;29;20036;-95
2021/05/06 15:57:10;;;;;;;1999.90;999.90;;;15.70;68.30;;;;;;4930234;29;20388;-96
2021/05/06 15:59:38;;;;;;;1999.90;999.90;;;15.60;71.60;;;;;;4936815;29;20139;-95
2021/05/06 16:02:33;;;;;;;1999.90;999.90;;;15.60;71.00;;;;;;4939358;29;20048;-95
2021/05/06 16:05:01;;;;;;;1999.90;999.90;;;15.60;70.80;;;;;;4933290;29;20084;-95
2021/05/06 16:07:28;;;;;;;1999.90;999.90;;;15.40;70.50;;;;;;4942303;29;20055;-95
2021/05/06 16:09:55;;;;;;;1999.90;999.90;;;15.20;67.90;;;;;;4937731;29;20086;-95
2021/05/06 16:12:24;;;;;;;1999.90;999.90;;;14.90;68.00;;;;;;4938098;29;20554;-94
2021/05/06 16:14:51;;;;;;;1999.90;999.90;;;14.80;72.00;;;;;;4935257;29;20059;-95
2021/05/06 16:17:18;;;;;;;1999.90;999.90;;;14.80;70.10;;;;;;4941607;29;20130;-94
2021/05/06 16:19:47;;;;;;;1999.90;999.90;;;14.70;69.00;;;;;;4952540;29;20067;-95
2021/05/06 16:22:14;;;;;;;1999.90;999.90;;;14.60;70.20;;;;;;4940793;29;20078;-95
2021/05/06 16:24:41;;;;;;;1999.90;999.90;;;14.40;70.40;;;;;;4941292;29;20059;-95
2021/05/06 16:27:09;;;;;;;1999.90;999.90;;;14.30;69.60;;;;;;4949190;29;20055;-95
2021/05/06 16:29:37;;;;;;;1999.90;999.90;;;14.20;70.30;;;;;;4942592;29;20055;-95
2021/05/06 16:32:05;;;;;;;1999.90;999.90;;;14.10;72.70;;;;;;4933567;29;20103;-93
2021/05/06 16:34:34;;;;;;;1999.90;999.90;;;14.20;74.00;;;;;;4936190;29;20047;-94
2021/05/06 16:37:10;;;;;;;1999.90;999.90;;;13.90;73.30;;;;;;4941197;29;20059;-94
2021/05/06 16:39:45;;;;;;;1999.90;999.90;;;13.90;74.80;;;;;;4940352;29;20063;-94
2021/05/06 16:42:29;;;;;;;1999.90;999.90;;;13.70;74.20;;;;;;4941584;29;20459;-94
2021/05/06 16:44:57;;;;;;;1999.90;999.90;;;13.50;75.50;;;;;;4940548;29;20048;-94
2021/05/06 16:47:24;;;;;;;1999.90;999.90;;;13.30;75.90;;;;;;4940590;29;20063;-93
2021/05/06 16:49:53;;;;;;;1999.90;999.90;;;13.20;74.80;;;;;;4940872;29;20051;-93
2021/05/06 16:52:20;;;;;;;1999.90;999.90;;;13.10;76.60;;;;;;4939513;29;20052;-93
2021/05/06 16:54:47;;;;;;;1999.90;999.90;;;13.10;77.40;;;;;;4940445;29;20051;-95
2021/05/06 16:57:14;;;;;;;1999.90;999.90;;;13.20;77.90;;;;;;4940126;29;20051;-92
2021/05/06 16:59:43;;;;;;;1999.90;999.90;;;13.00;74.90;;;;;;4935658;29;20146;-93
2021/05/06 17:02:11;;;;;;;1999.90;999.90;;;12.90;76.90;;;;;;4934250;29;20056;-93
2021/05/06 17:04:39;;;;;;;1999.90;999.90;;;12.90;77.20;;;;;;4934020;29;20055;-93
2021/05/06 17:07:06;;;;;;;1999.90;999.90;;;12.80;76.10;;;;;;4928026;29;20147;-93
2021/05/06 17:09:37;;;;;;;1999.90;999.90;;;12.80;76.90;;;;;;4947886;29;20122;-93
2021/05/06 17:12:06;;;;;;;1999.90;999.90;;;12.50;78.20;;;;;;4935793;29;20422;-93
2021/05/06 17:14:33;;;;;;;1999.90;999.90;;;12.40;79.20;;;;;;4946503;28;20051;-94
2021/05/06 17:17:01;;;;;;;1999.90;999.90;;;12.50;78.90;;;;;;4926854;29;20495;-94